Monastir Skanes, Tunisie

08:55 CET le 23 octobre 2014 (GMT +0100)
Habib Bourguiba | Change Station
CLOSE
Current Station
Aéroport
Location: Habib Bourguiba,
Altitude: 7 ft
Stations météo à proximité

Alt. 7 ft 35.76 °N, 10.75 °E | Updated 25 minutes ago

Partly Cloudy
Partiellement nuageux
70 ° F
Paraît 70 ° F
N
16
Vent Variable Vent de ONO

Aujourd'hui
Haut(e) -- | Bas -- ° F
--% Risque de précip.
Hier
Haut(e) -- | Bas -- ° F
Precip. -- pouce
6:30 AM 5:31 PM
Lune descendante, 0% visible
Pression 30.01 pouce
Visibilité 5.0 Miles terrestres
Nuages Peu 2000 ft
Point de rosée 50 ° F
Humidité 49%
Précipitations 0.00 pouce
Profondeur de la couche neigeuse Non disponible.
UV 1 sur 12
Pollen Non disponible.
Qualité de l'air Non disponible.
Flu Activity Non disponible.
METAR DTMB 230730Z 29014KT 8000 FEW020 21/10 Q1016 NOSIG

More Conditions Fewer Conditions

Pression 30.01 pouce
Visibilité 5.0 Miles terrestres
Nuages Peu 2000 ft
Point de rosée 50 ° F
Humidité 49%
Précipitations 0.00 pouce
Profondeur de la couche neigeuse Non disponible.
UV 1 sur 12
Pollen Non disponible.
Qualité de l'air Non disponible.
Flu Activity Non disponible.
METAR DTMB 230730Z 29014KT 8000 FEW020 21/10 Q1016 NOSIG

More Conditions Fewer Conditions

10-Day Weather Forecast

Almanac

Astronomie

Oct. 23, 2014 Lever Coucher
Temps réel 06:30 CET 17:31 CET
Crépuscule civil 06:04 CET 17:57 CET
Crépuscule nautique 05:34 CET 18:27 CET
Crépuscule astronomique 05:04 CET 18:57 CET
Lune 05:54 CET 17:22 CET
Durée de lumière visible 11h 53m
Longueur du jour
11h 01m
Tomorrow will be 2m 5s shorter.
Lune descendante, 0% of the Moon is Illuminated
Aujourd'hui
Lune descendante
Oct 23
Nouveau
Oct 30
Premier quartier
Nov 6
Pleine lune
Nov 14
Dernier quartier

Les extrêmes de température d’hier

Country Highs Country Lows

Community

WunderPhotos

Upload Photos

1,764,194 Photos téléchargées !

Nearby

Qualité de l'air

Not available.

Épaisseur de neige

Not available.

Activité sismique

Ville Distance Mag. Time & Date
No recent earthquake activity has been reported nearby.
Minimum magnitude displayed is 2.5.

Températures des eaux côtières

Lieu Température
Aucun rapport de station

Stations météo à proximité